createdAt,value
2023-05-05T00:00:27.451Z,98410.91
2023-05-05T00:01:29.015Z,98415.91
2023-05-05T00:02:31.195Z,98417.41
2023-05-05T00:03:33.425Z,98409.97
2023-05-05T00:04:35.016Z,98420.00
2023-05-05T00:05:36.575Z,98400.47
2023-05-05T00:06:38.137Z,98412.03
2023-05-05T00:07:39.778Z,98404.72
2023-05-05T00:08:41.969Z,98412.69
2023-05-05T00:09:43.515Z,98415.41
2023-05-05T00:10:45.714Z,98408.91
2023-05-05T00:11:47.235Z,98405.06
2023-05-05T00:12:48.969Z,98406.72
2023-05-05T00:13:51.495Z,98412.50
2023-05-05T00:14:53.099Z,98406.59
2023-05-05T00:15:54.649Z,98407.75
2023-05-05T00:16:56.913Z,98403.75
2023-05-05T00:17:58.515Z,98397.50
2023-05-05T00:19:00.295Z,98405.25
2023-05-05T00:20:02.110Z,98413.38
2023-05-05T00:21:04.534Z,98412.09
2023-05-05T00:22:06.162Z,98407.25
2023-05-05T00:23:07.690Z,98409.97
2023-05-05T00:24:10.220Z,98404.00
2023-05-05T00:25:11.903Z,98409.63
2023-05-05T00:26:13.860Z,98412.00
2023-05-05T00:27:15.386Z,98407.59
2023-05-05T00:28:17.015Z,98393.94
2023-05-05T00:29:18.589Z,98407.91
2023-05-05T00:30:20.228Z,98402.31
2023-05-05T00:31:21.816Z,98408.91
2023-05-05T00:32:23.892Z,98399.94
2023-05-05T00:33:26.054Z,98407.88
2023-05-05T00:34:28.051Z,98409.78
2023-05-05T00:35:29.612Z,98397.50
2023-05-05T00:36:31.198Z,98404.09
2023-05-05T00:37:32.982Z,98407.38
2023-05-05T00:38:34.509Z,98416.03
2023-05-05T00:39:36.068Z,98401.81
2023-05-05T00:40:38.213Z,98406.66
2023-05-05T00:41:39.781Z,98398.38
2023-05-05T00:42:46.386Z,98409.25
2023-05-05T00:43:48.548Z,98403.34
2023-05-05T00:44:50.711Z,98410.09
2023-05-05T00:46:04.527Z,98399.31
2023-05-05T00:47:06.136Z,98403.25
2023-05-05T00:48:07.772Z,98396.41
2023-05-05T00:49:12.759Z,98400.03
2023-05-05T00:50:24.915Z,98381.63
2023-05-05T00:51:26.509Z,98389.22
2023-05-05T00:52:28.465Z,98398.38
2023-05-05T00:53:30.235Z,98393.50
2023-05-05T00:54:35.172Z,98392.44
2023-05-05T00:55:37.325Z,98380.50
2023-05-05T00:56:38.839Z,98383.22
2023-05-05T00:57:40.407Z,98386.47
2023-05-05T00:58:42.402Z,98381.19
2023-05-05T00:59:44.682Z,98378.63
2023-05-05T01:00:46.730Z,98373.34
2023-05-05T01:01:48.397Z,98380.84
2023-05-05T01:02:50.099Z,98382.63
2023-05-05T01:03:51.752Z,98373.59
2023-05-05T01:04:53.950Z,98371.63
2023-05-05T01:06:08.681Z,98380.50
2023-05-05T01:07:29.896Z,98375.88
2023-05-05T01:08:39.638Z,98381.78
2023-05-05T01:10:11.083Z,98378.31
2023-05-05T01:11:27.617Z,98378.44
2023-05-05T01:12:57.619Z,98375.53
2023-05-05T01:14:13.767Z,98374.47
2023-05-05T01:15:35.180Z,98363.94
2023-05-05T01:16:37.550Z,98380.22
2023-05-05T01:17:43.901Z,98375.22
2023-05-05T01:18:49.983Z,98374.72
2023-05-05T01:20:12.566Z,98383.16
2023-05-05T01:21:19.488Z,98375.94
2023-05-05T01:22:23.439Z,98381.97
2023-05-05T01:23:38.947Z,98383.56
2023-05-05T01:25:08.847Z,98382.97
2023-05-05T01:26:38.219Z,98369.38
2023-05-05T01:28:00.625Z,98375.22
2023-05-05T01:29:23.363Z,98368.22
2023-05-05T01:31:18.996Z,98372.22
2023-05-05T01:32:26.777Z,98367.94
2023-05-05T01:33:31.491Z,98368.44
2023-05-05T01:34:36.322Z,98370.28
2023-05-05T01:35:40.710Z,98373.28
2023-05-05T01:36:44.414Z,98371.06
2023-05-05T01:38:12.569Z,98370.00
2023-05-05T01:39:16.124Z,98377.91
2023-05-05T01:40:20.913Z,98374.75
2023-05-05T01:41:25.903Z,98383.28
2023-05-05T01:42:27.548Z,98382.41
2023-05-05T01:43:30.744Z,98387.25
2023-05-05T01:44:33.231Z,98377.69
2023-05-05T01:45:37.327Z,98371.38
2023-05-05T01:46:39.419Z,98377.94
2023-05-05T01:47:40.948Z,98372.44
2023-05-05T01:48:42.974Z,98363.91
2023-05-05T01:49:47.415Z,98370.94
2023-05-05T01:50:49.009Z,98371.97
2023-05-05T01:51:51.238Z,98368.00
2023-05-05T01:52:53.252Z,98360.69
2023-05-05T01:53:57.341Z,98368.94
2023-05-05T01:54:59.130Z,98359.19
2023-05-05T01:56:00.654Z,98373.94
2023-05-05T01:57:03.531Z,98370.16
2023-05-05T01:58:06.335Z,98364.78
2023-05-05T01:59:07.925Z,98367.19
2023-05-05T02:00:10.096Z,98360.94
2023-05-05T02:01:12.207Z,98367.44
2023-05-05T02:02:13.821Z,98363.13
2023-05-05T02:03:15.738Z,98370.78
2023-05-05T02:04:18.046Z,98367.81
2023-05-05T02:05:21.965Z,98363.22
2023-05-05T02:06:24.667Z,98367.38
2023-05-05T02:07:26.330Z,98366.84
2023-05-05T02:08:27.878Z,98372.66
2023-05-05T02:09:29.589Z,98373.69
2023-05-05T02:10:31.166Z,98375.72
2023-05-05T02:11:32.788Z,98369.06
2023-05-05T02:12:34.347Z,98360.94
2023-05-05T02:13:35.985Z,98367.09
2023-05-05T02:14:37.577Z,98362.25
2023-05-05T02:15:39.469Z,98375.06
2023-05-05T02:16:41.370Z,98344.50
2023-05-05T02:17:43.486Z,98373.59
2023-05-05T02:18:46.053Z,98380.31
2023-05-05T02:19:47.566Z,98368.94
2023-05-05T02:20:49.130Z,98365.06
2023-05-05T02:21:50.655Z,98370.63
2023-05-05T02:22:52.644Z,98372.84
2023-05-05T02:23:54.229Z,98345.34
2023-05-05T02:24:56.286Z,98380.31
2023-05-05T02:26:01.179Z,98378.69
2023-05-05T02:27:03.434Z,98366.50
2023-05-05T02:28:05.030Z,98371.13
2023-05-05T02:29:17.596Z,98370.28
2023-05-05T02:30:19.290Z,98372.69
2023-05-05T02:31:21.276Z,98373.09
2023-05-05T02:32:32.390Z,98361.19
2023-05-05T02:33:34.767Z,98371.22
2023-05-05T02:34:38.461Z,98370.91
2023-05-05T02:35:40.939Z,98368.44
2023-05-05T02:36:42.601Z,98360.56
2023-05-05T02:37:44.982Z,98359.31
2023-05-05T02:38:47.190Z,98373.06
2023-05-05T02:39:59.131Z,98367.16
2023-05-05T02:41:00.741Z,98370.94
2023-05-05T02:42:03.099Z,98370.50
2023-05-05T02:43:06.864Z,98370.03
2023-05-05T02:44:08.608Z,98368.97
2023-05-05T02:45:15.140Z,98356.53
2023-05-05T02:46:17.702Z,98372.03
2023-05-05T02:47:20.589Z,98367.50
2023-05-05T02:48:22.688Z,98373.09
2023-05-05T02:49:24.284Z,98363.84
2023-05-05T02:50:25.854Z,98374.41
2023-05-05T02:51:27.675Z,98369.91
2023-05-05T02:52:29.303Z,98364.38
2023-05-05T02:53:31.808Z,98365.97
2023-05-05T02:54:33.665Z,98364.97
2023-05-05T02:55:43.510Z,98372.16
2023-05-05T02:56:48.581Z,98366.94
2023-05-05T02:57:57.572Z,98367.03
2023-05-05T02:59:12.848Z,98370.97
2023-05-05T03:00:18.576Z,98362.09
2023-05-05T03:01:45.196Z,98362.22
2023-05-05T03:02:55.302Z,98354.66
2023-05-05T03:04:12.087Z,98341.75
2023-05-05T03:05:18.852Z,98337.41
2023-05-05T03:06:21.913Z,98348.41
2023-05-05T03:07:30.702Z,98350.53
2023-05-05T03:08:41.031Z,98345.59
2023-05-05T03:10:18.624Z,98358.22
2023-05-05T03:11:33.553Z,98351.28
2023-05-05T03:13:01.663Z,98352.25
2023-05-05T03:14:09.016Z,98360.09
2023-05-05T03:15:11.029Z,98350.66
2023-05-05T03:16:12.632Z,98347.63
2023-05-05T03:17:14.164Z,98354.69
2023-05-05T03:18:17.682Z,98354.06
2023-05-05T03:19:19.244Z,98352.28
2023-05-05T03:20:20.838Z,98352.84
2023-05-05T03:21:22.322Z,98355.28
2023-05-05T03:22:23.866Z,98351.34
2023-05-05T03:23:26.120Z,98357.78
2023-05-05T03:24:28.447Z,98356.63
2023-05-05T03:25:43.455Z,98346.44
2023-05-05T03:26:45.671Z,98348.00
2023-05-05T03:27:47.186Z,98346.84
2023-05-05T03:28:49.297Z,98350.19
2023-05-05T03:29:50.847Z,98357.94
2023-05-05T03:30:53.081Z,98356.13
2023-05-05T03:31:54.678Z,98357.16
2023-05-05T03:32:56.225Z,98343.03
2023-05-05T03:33:58.131Z,98357.34
2023-05-05T03:34:59.640Z,98354.94
2023-05-05T03:36:01.214Z,98349.25
2023-05-05T03:37:02.970Z,98353.19
2023-05-05T03:38:04.515Z,98346.59
2023-05-05T03:39:06.161Z,98349.94
2023-05-05T03:40:08.590Z,98352.09
2023-05-05T03:41:10.289Z,98347.72
2023-05-05T03:42:11.855Z,98354.31
2023-05-05T03:43:13.790Z,98352.84
2023-05-05T03:44:15.378Z,98357.59
2023-05-05T03:45:17.069Z,98354.31
2023-05-05T03:46:18.794Z,98342.91
2023-05-05T03:47:20.486Z,98352.47
2023-05-05T03:48:22.528Z,98352.88
2023-05-05T03:49:24.177Z,98352.38
2023-05-05T03:50:25.809Z,98358.84
2023-05-05T03:51:28.076Z,98362.44
2023-05-05T03:52:29.645Z,98362.41
2023-05-05T03:53:31.236Z,98360.69
2023-05-05T03:54:32.773Z,98361.94
2023-05-05T03:55:34.318Z,98360.03
2023-05-05T03:56:35.858Z,98364.94
2023-05-05T03:57:37.414Z,98366.56
2023-05-05T03:58:39.277Z,98367.66
2023-05-05T03:59:40.860Z,98361.50
2023-05-05T04:00:42.456Z,98364.63
2023-05-05T04:01:46.650Z,98362.34
2023-05-05T04:02:51.350Z,98362.44
2023-05-05T04:03:53.353Z,98355.38
2023-05-05T04:04:54.914Z,98364.44
2023-05-05T04:05:56.444Z,98371.00
2023-05-05T04:06:58.048Z,98365.75
2023-05-05T04:07:59.823Z,98368.94
2023-05-05T04:09:01.369Z,98363.81
2023-05-05T04:10:02.893Z,98374.03
2023-05-05T04:11:04.463Z,98369.47
2023-05-05T04:12:06.522Z,98370.63
2023-05-05T04:13:09.052Z,98372.28
2023-05-05T04:14:10.596Z,98369.31
2023-05-05T04:15:12.141Z,98373.38
2023-05-05T04:16:13.878Z,98373.22
2023-05-05T04:17:15.686Z,98370.38
2023-05-05T04:18:17.594Z,98369.50
2023-05-05T04:19:19.135Z,98361.34
2023-05-05T04:20:21.391Z,98368.59
2023-05-05T04:21:22.926Z,98365.38
2023-05-05T04:22:24.428Z,98373.13
2023-05-05T04:23:25.960Z,98366.47
2023-05-05T04:24:27.494Z,98374.22
2023-05-05T04:25:29.416Z,98371.06
2023-05-05T04:26:30.960Z,98378.94
2023-05-05T04:27:32.636Z,98376.00
2023-05-05T04:28:34.333Z,98378.47
2023-05-05T04:29:36.316Z,98379.72
2023-05-05T04:30:37.841Z,98376.66
2023-05-05T04:31:39.445Z,98373.41
2023-05-05T04:32:41.079Z,98367.72
2023-05-05T04:33:42.715Z,98374.69
2023-05-05T04:34:44.249Z,98359.25
2023-05-05T04:35:45.942Z,98370.59
2023-05-05T04:36:47.609Z,98369.06
2023-05-05T04:37:49.379Z,98368.50
2023-05-05T04:38:51.248Z,98369.44
2023-05-05T04:39:52.844Z,98362.97
2023-05-05T04:40:54.396Z,98372.34
2023-05-05T04:41:55.945Z,98363.72
2023-05-05T04:42:57.492Z,98368.91
2023-05-05T04:43:59.033Z,98361.94
2023-05-05T04:45:00.718Z,98354.94
2023-05-05T04:46:02.251Z,98358.56
2023-05-05T04:47:04.190Z,98356.09
2023-05-05T04:48:05.955Z,98364.56
2023-05-05T04:49:07.600Z,98362.41
2023-05-05T04:50:09.953Z,98362.50
2023-05-05T04:51:12.770Z,98369.97
2023-05-05T04:52:14.352Z,98373.06
2023-05-05T04:53:16.089Z,98373.72
2023-05-05T04:54:17.651Z,98368.63
2023-05-05T04:55:19.273Z,98362.72
2023-05-05T04:56:20.987Z,98365.09
2023-05-05T04:57:22.521Z,98372.53
2023-05-05T04:58:24.413Z,98367.34
2023-05-05T04:59:25.969Z,98363.84
2023-05-05T05:00:27.528Z,98368.78
2023-05-05T05:01:29.083Z,98365.34
2023-05-05T05:02:30.757Z,98365.63
2023-05-05T05:03:32.726Z,98365.47
2023-05-05T05:04:37.408Z,98374.50
2023-05-05T05:05:38.925Z,98370.88
2023-05-05T05:06:40.677Z,98378.56
2023-05-05T05:07:42.585Z,98381.34
2023-05-05T05:08:44.150Z,98376.00
2023-05-05T05:09:45.872Z,98392.38
2023-05-05T05:10:47.420Z,98380.97
2023-05-05T05:11:49.006Z,98384.84
2023-05-05T05:12:50.585Z,98391.41
2023-05-05T05:13:53.044Z,98399.66
2023-05-05T05:14:54.573Z,98401.88
2023-05-05T05:15:56.190Z,98407.09
2023-05-05T05:16:57.719Z,98410.13
2023-05-05T05:17:59.371Z,98404.78
2023-05-05T05:19:01.850Z,98412.13
2023-05-05T05:20:05.064Z,98415.19
2023-05-05T05:21:06.868Z,98416.06
2023-05-05T05:22:09.027Z,98420.16
2023-05-05T05:23:10.544Z,98411.00
2023-05-05T05:24:12.116Z,98409.41
2023-05-05T05:25:13.676Z,98415.97
2023-05-05T05:26:15.257Z,98396.31
2023-05-05T05:27:17.128Z,98417.56
2023-05-05T05:28:18.692Z,98416.06
2023-05-05T05:29:20.534Z,98421.25
2023-05-05T05:30:22.254Z,98414.78
2023-05-05T05:31:23.796Z,98416.75
2023-05-05T05:32:25.746Z,98411.59
2023-05-05T05:33:27.354Z,98411.66
2023-05-05T05:34:29.009Z,98403.25
2023-05-05T05:35:31.593Z,98401.25
2023-05-05T05:36:33.272Z,98400.78
2023-05-05T05:37:35.415Z,98405.41
2023-05-05T05:38:37.102Z,98395.34
2023-05-05T05:39:39.430Z,98404.66
2023-05-05T05:40:42.382Z,98392.38
2023-05-05T05:41:44.147Z,98392.66
2023-05-05T05:42:46.069Z,98401.38
2023-05-05T05:43:47.679Z,98394.19
2023-05-05T05:44:49.212Z,98390.22
2023-05-05T05:45:50.805Z,98388.94
2023-05-05T05:46:52.683Z,98399.41
2023-05-05T05:47:54.287Z,98399.00
2023-05-05T05:48:56.448Z,98393.66
2023-05-05T05:49:58.033Z,98371.59
2023-05-05T05:50:59.665Z,98377.88
2023-05-05T05:52:01.247Z,98397.75
2023-05-05T05:53:02.861Z,98404.13
2023-05-05T05:54:04.403Z,98404.56
2023-05-05T05:55:07.188Z,98405.69
2023-05-05T05:56:09.120Z,98402.94
2023-05-05T05:57:11.020Z,98403.09
2023-05-05T05:58:12.589Z,98402.63
2023-05-05T05:59:14.114Z,98405.41
2023-05-05T06:00:16.004Z,98403.53
2023-05-05T06:01:17.551Z,98409.84
2023-05-05T06:02:19.585Z,98407.03
2023-05-05T06:03:21.233Z,98407.78
2023-05-05T06:04:22.941Z,98403.72
2023-05-05T06:05:24.592Z,98406.44
2023-05-05T06:06:26.239Z,98405.75
2023-05-05T06:07:27.779Z,98407.75
2023-05-05T06:08:29.429Z,98401.81
2023-05-05T06:09:30.994Z,98401.88
2023-05-05T06:10:32.773Z,98395.63
2023-05-05T06:11:37.036Z,98404.13
2023-05-05T06:12:38.583Z,98405.22
2023-05-05T06:13:40.154Z,98399.72
2023-05-05T06:14:41.691Z,98402.50
2023-05-05T06:15:43.444Z,98393.16
2023-05-05T06:16:45.688Z,98402.97
2023-05-05T06:17:47.317Z,98396.78
2023-05-05T06:18:48.852Z,98394.25
2023-05-05T06:19:50.410Z,98402.28
2023-05-05T06:20:52.376Z,98395.19
2023-05-05T06:21:54.407Z,98398.84
2023-05-05T06:22:56.002Z,98391.31
2023-05-05T06:23:57.511Z,98391.16
2023-05-05T06:24:59.076Z,98395.81
2023-05-05T06:26:00.666Z,98389.53
2023-05-05T06:27:02.916Z,98394.75
2023-05-05T06:28:05.690Z,98391.50
2023-05-05T06:29:07.354Z,98394.47
2023-05-05T06:30:09.755Z,98396.69
2023-05-05T06:31:13.217Z,98388.78
2023-05-05T06:32:15.564Z,98391.78
2023-05-05T06:33:17.119Z,98395.03
2023-05-05T06:34:18.672Z,98409.25
2023-05-05T06:35:20.757Z,98401.88
2023-05-05T06:36:22.705Z,98395.59
2023-05-05T06:37:24.243Z,98396.66
2023-05-05T06:38:25.855Z,98398.34
2023-05-05T06:39:27.448Z,98390.41
2023-05-05T06:40:29.037Z,98395.03
2023-05-05T06:41:30.967Z,98392.88
2023-05-05T06:42:32.632Z,98394.25
2023-05-05T06:43:34.272Z,98392.59
2023-05-05T06:44:36.504Z,98393.97
2023-05-05T06:45:38.082Z,98396.16
2023-05-05T06:46:39.975Z,98397.53
2023-05-05T06:47:42.430Z,98386.84
2023-05-05T06:48:44.065Z,98392.84
2023-05-05T06:49:45.635Z,98378.09
2023-05-05T06:50:47.384Z,98384.34
2023-05-05T06:51:49.476Z,98384.59
2023-05-05T06:52:52.511Z,98384.00
2023-05-05T06:53:54.068Z,98393.84
2023-05-05T06:54:55.676Z,98387.34
2023-05-05T06:55:57.568Z,98384.63
2023-05-05T06:56:59.793Z,98388.66
2023-05-05T06:58:01.397Z,98386.97
2023-05-05T06:59:02.918Z,98384.28
2023-05-05T07:00:06.072Z,98380.41
2023-05-05T07:01:08.256Z,98380.13
2023-05-05T07:02:09.795Z,98378.69
2023-05-05T07:03:11.738Z,98380.53
2023-05-05T07:04:13.430Z,98378.69
2023-05-05T07:05:15.026Z,98376.03
2023-05-05T07:06:16.900Z,98380.59
2023-05-05T07:07:18.437Z,98378.56
2023-05-05T07:08:19.967Z,98388.31
2023-05-05T07:09:21.561Z,98383.13
2023-05-05T07:10:23.453Z,98382.13
2023-05-05T07:11:25.594Z,98381.50
2023-05-05T07:12:29.385Z,98381.84
2023-05-05T07:13:30.919Z,98387.22
2023-05-05T07:14:32.510Z,98376.22
2023-05-05T07:15:34.638Z,98386.06
2023-05-05T07:16:37.307Z,98379.97
2023-05-05T07:17:38.926Z,98387.44
2023-05-05T07:18:40.579Z,98390.44
2023-05-05T07:19:42.117Z,98382.66
2023-05-05T07:20:44.590Z,98383.09
2023-05-05T07:21:47.267Z,98377.53
2023-05-05T07:22:48.809Z,98369.22
2023-05-05T07:23:50.796Z,98373.13
2023-05-05T07:24:53.388Z,98375.72
2023-05-05T07:25:55.485Z,98379.88
2023-05-05T07:26:57.487Z,98378.25
2023-05-05T07:27:59.022Z,98376.31
2023-05-05T07:29:02.177Z,98385.44
2023-05-05T07:30:07.095Z,98376.84
2023-05-05T07:31:11.787Z,98375.94
2023-05-05T07:32:13.448Z,98376.63
2023-05-05T07:33:15.598Z,98374.56
2023-05-05T07:34:17.152Z,98378.84
2023-05-05T07:35:18.799Z,98376.59
2023-05-05T07:36:20.439Z,98369.06
2023-05-05T07:37:22.020Z,98369.41
2023-05-05T07:38:25.358Z,98374.06
2023-05-05T07:39:26.925Z,98371.28
2023-05-05T07:40:28.420Z,98377.44
2023-05-05T07:41:30.292Z,98378.34
2023-05-05T07:42:31.861Z,98373.66
2023-05-05T07:43:33.580Z,98371.88
2023-05-05T07:44:35.124Z,98374.75
2023-05-05T07:45:36.990Z,98382.56
2023-05-05T07:46:38.574Z,98385.84
2023-05-05T07:47:40.829Z,98381.00
2023-05-05T07:48:42.441Z,98373.88
2023-05-05T07:49:43.995Z,98371.28
2023-05-05T07:50:45.675Z,98385.28
2023-05-05T07:51:50.053Z,98389.94
2023-05-05T07:52:56.343Z,98382.03
2023-05-05T07:54:07.635Z,98377.94
2023-05-05T07:55:09.400Z,98384.78
2023-05-05T07:56:10.997Z,98379.75
2023-05-05T07:57:12.535Z,98368.72
2023-05-05T07:58:14.113Z,98373.03
2023-05-05T07:59:16.022Z,98370.00
2023-05-05T08:00:19.782Z,98368.06
2023-05-05T08:01:21.668Z,98374.25
2023-05-05T08:02:23.384Z,98375.91
2023-05-05T08:03:25.326Z,98367.91
2023-05-05T08:04:27.034Z,98364.97
2023-05-05T08:05:28.924Z,98370.09
2023-05-05T08:06:31.594Z,98377.03
2023-05-05T08:07:33.109Z,98374.63
2023-05-05T08:08:34.705Z,98368.03
2023-05-05T08:09:36.774Z,98376.78
2023-05-05T08:10:38.638Z,98366.81
2023-05-05T08:11:40.176Z,98367.72
2023-05-05T08:12:41.865Z,98366.53
2023-05-05T08:13:44.169Z,98364.16
2023-05-05T08:14:45.808Z,98370.78
2023-05-05T08:15:47.833Z,98360.44
2023-05-05T08:16:49.478Z,98379.94
2023-05-05T08:17:52.077Z,98369.03
2023-05-05T08:18:53.734Z,98376.00
2023-05-05T08:19:55.259Z,98373.53
2023-05-05T08:20:57.130Z,98376.97
2023-05-05T08:22:01.120Z,98381.34
2023-05-05T08:23:03.043Z,98373.63
2023-05-05T08:24:04.589Z,98379.72
2023-05-05T08:25:06.961Z,98378.66
2023-05-05T08:26:09.530Z,98371.41
2023-05-05T08:27:11.328Z,98374.97
2023-05-05T08:28:13.016Z,98379.88
2023-05-05T08:29:14.566Z,98374.22
2023-05-05T08:30:19.901Z,98375.63
2023-05-05T08:31:21.993Z,98370.09
2023-05-05T08:32:23.614Z,98377.25
2023-05-05T08:34:26.846Z,98375.06
2023-05-05T08:35:28.913Z,98375.16
2023-05-05T08:36:31.153Z,98373.53
2023-05-05T08:37:32.853Z,98369.47
2023-05-05T08:38:34.420Z,98377.81
2023-05-05T08:39:35.971Z,98370.56
2023-05-05T08:40:38.297Z,98367.41
2023-05-05T08:41:39.950Z,98374.72
2023-05-05T08:42:42.179Z,98378.00
2023-05-05T08:43:44.458Z,98371.13
2023-05-05T08:44:46.526Z,98360.72
2023-05-05T08:45:48.065Z,98371.00
2023-05-05T08:46:49.632Z,98373.94
2023-05-05T08:47:51.227Z,98376.81
2023-05-05T08:48:52.837Z,98374.22
2023-05-05T08:49:54.548Z,98366.38
2023-05-05T08:50:59.753Z,98373.31
2023-05-05T08:52:04.193Z,98366.72
2023-05-05T08:53:10.297Z,98371.72
2023-05-05T08:54:20.854Z,98369.38
2023-05-05T08:55:26.899Z,98366.78
2023-05-05T08:56:37.351Z,98372.13
2023-05-05T08:57:45.465Z,98361.72
2023-05-05T08:58:47.196Z,98369.66
2023-05-05T08:59:49.013Z,98378.16
2023-05-05T09:00:51.274Z,98380.44
2023-05-05T09:01:52.996Z,98377.00
2023-05-05T09:02:56.571Z,98381.00
2023-05-05T09:03:58.993Z,98374.94
2023-05-05T09:05:05.096Z,98374.13
2023-05-05T09:06:07.207Z,98381.00
2023-05-05T09:07:09.010Z,98376.81
2023-05-05T09:08:11.077Z,98377.81
2023-05-05T09:09:12.631Z,98362.72
2023-05-05T09:10:14.211Z,98368.25
2023-05-05T09:11:15.893Z,98370.84
2023-05-05T09:12:18.759Z,98382.69
2023-05-05T09:13:20.420Z,98373.72
2023-05-05T09:14:21.967Z,98372.25
2023-05-05T09:15:23.876Z,98373.66
2023-05-05T09:16:25.517Z,98373.63
2023-05-05T09:17:27.188Z,98370.34
2023-05-05T09:18:28.882Z,98375.75
2023-05-05T09:19:30.446Z,98371.38
2023-05-05T09:20:36.045Z,98371.22
2023-05-05T09:21:38.147Z,98369.69
2023-05-05T09:22:40.488Z,98369.88
2023-05-05T09:23:42.042Z,98360.66
2023-05-05T09:24:54.687Z,98364.72
2023-05-05T09:26:06.439Z,98365.34
2023-05-05T09:27:21.259Z,98366.38
2023-05-05T09:28:22.771Z,98340.03
2023-05-05T09:29:24.646Z,98360.88
2023-05-05T09:30:27.399Z,98358.94
2023-05-05T09:31:30.767Z,98355.94
2023-05-05T09:32:51.145Z,98356.19
2023-05-05T09:33:52.728Z,98359.59
2023-05-05T09:34:59.051Z,98361.69
2023-05-05T09:36:00.820Z,98352.47
2023-05-05T09:37:02.349Z,98355.94
2023-05-05T09:38:11.555Z,98343.28
2023-05-05T09:39:19.285Z,98351.66
2023-05-05T09:40:21.717Z,98352.34
2023-05-05T09:41:49.514Z,98348.00
2023-05-05T09:43:00.952Z,98350.13
2023-05-05T09:44:02.643Z,98350.94
2023-05-05T09:45:26.336Z,98355.22
2023-05-05T09:46:28.045Z,98352.63
2023-05-05T09:47:36.417Z,98344.63
2023-05-05T09:48:37.979Z,98340.94
2023-05-05T09:49:39.600Z,98343.06
2023-05-05T09:50:44.914Z,98332.78
2023-05-05T09:51:47.136Z,98334.31
2023-05-05T09:52:58.483Z,98342.59
2023-05-05T09:53:59.996Z,98341.66
2023-05-05T09:55:01.675Z,98338.06
2023-05-05T09:56:03.244Z,98345.22
2023-05-05T09:57:04.769Z,98340.19
2023-05-05T09:58:23.751Z,98335.84
2023-05-05T09:59:25.718Z,98343.16
2023-05-05T10:00:40.073Z,98342.50
2023-05-05T10:01:43.747Z,98343.81
2023-05-05T10:02:45.525Z,98354.03
2023-05-05T10:03:53.368Z,98361.31
2023-05-05T10:05:05.107Z,98350.91
2023-05-05T10:06:07.933Z,98346.16
2023-05-05T10:07:18.704Z,98353.50
2023-05-05T10:08:21.552Z,98350.78
2023-05-05T10:09:23.402Z,98348.00
2023-05-05T10:10:27.498Z,98342.34
2023-05-05T10:11:30.306Z,98342.69
2023-05-05T10:12:32.517Z,98348.41
2023-05-05T10:13:40.002Z,98348.50
2023-05-05T10:14:41.532Z,98343.53
2023-05-05T10:15:44.881Z,98352.94
2023-05-05T10:16:49.043Z,98344.03
2023-05-05T10:18:05.913Z,98346.66
2023-05-05T10:19:09.411Z,98338.63
2023-05-05T10:20:11.474Z,98341.19
2023-05-05T10:21:13.060Z,98344.03
2023-05-05T10:22:14.652Z,98339.16
2023-05-05T10:23:18.254Z,98337.69
2023-05-05T10:24:39.269Z,98334.56
2023-05-05T10:25:54.520Z,98341.75
2023-05-05T10:26:56.974Z,98333.50
2023-05-05T10:28:00.229Z,98335.94
2023-05-05T10:29:01.880Z,98335.19
2023-05-05T10:30:07.620Z,98327.72
2023-05-05T10:31:24.485Z,98331.94
2023-05-05T10:33:45.105Z,98322.66
2023-05-05T10:34:58.634Z,98320.66
2023-05-05T10:36:05.314Z,98329.47
2023-05-05T10:37:07.123Z,98319.84
2023-05-05T10:38:09.012Z,98316.44
2023-05-05T10:39:10.917Z,98326.69
2023-05-05T10:40:12.598Z,98322.63
2023-05-05T10:41:14.213Z,98318.84
2023-05-05T10:42:16.158Z,98320.78
2023-05-05T10:43:17.738Z,98325.28
2023-05-05T10:44:19.401Z,98323.50
2023-05-05T10:45:21.155Z,98326.00
2023-05-05T10:46:22.780Z,98322.25
2023-05-05T10:47:24.509Z,98320.19
2023-05-05T10:48:37.890Z,98314.16
2023-05-05T10:50:02.879Z,98316.69
2023-05-05T10:51:40.589Z,98313.81
2023-05-05T10:53:05.536Z,98312.31
2023-05-05T10:54:28.307Z,98305.13
2023-05-05T10:55:32.701Z,98308.44
2023-05-05T10:56:34.237Z,98291.84
2023-05-05T10:57:39.171Z,98304.84
2023-05-05T10:58:58.368Z,98307.47
2023-05-05T11:00:01.669Z,98311.56
2023-05-05T11:01:03.922Z,98311.94
2023-05-05T11:02:28.018Z,98304.31
2023-05-05T11:03:29.984Z,98305.44
2023-05-05T11:04:31.905Z,98307.91
2023-05-05T11:05:33.458Z,98304.44
2023-05-05T11:06:34.946Z,98290.59
2023-05-05T11:07:37.310Z,98293.69
2023-05-05T11:08:42.689Z,98292.00
2023-05-05T11:10:06.781Z,98287.13
2023-05-05T11:11:10.349Z,98282.28
2023-05-05T11:12:13.824Z,98283.44
2023-05-05T11:13:15.477Z,98283.44
2023-05-05T11:14:20.820Z,98272.25
2023-05-05T11:15:22.395Z,98272.19
2023-05-05T11:16:43.657Z,98267.25
2023-05-05T11:17:48.704Z,98264.16
2023-05-05T11:18:50.713Z,98267.97
2023-05-05T11:19:53.325Z,98271.72
2023-05-05T11:20:57.542Z,98270.63
2023-05-05T11:22:02.180Z,98271.97
2023-05-05T11:23:03.615Z,98275.44
2023-05-05T11:24:27.438Z,98267.78
2023-05-05T11:25:34.680Z,98268.75
2023-05-05T11:26:49.284Z,98263.22
2023-05-05T11:28:12.279Z,98259.44
2023-05-05T11:29:14.124Z,98263.34
2023-05-05T11:30:16.892Z,98264.38
2023-05-05T11:31:18.411Z,98254.22
2023-05-05T11:32:20.170Z,98253.91
2023-05-05T11:33:26.109Z,98256.72
2023-05-05T11:34:27.948Z,98257.38
2023-05-05T11:35:56.239Z,98251.16
2023-05-05T11:37:02.538Z,98258.63
2023-05-05T11:38:04.155Z,98253.63
2023-05-05T11:39:17.965Z,98257.03
2023-05-05T11:40:24.363Z,98248.59
2023-05-05T11:41:34.660Z,98241.44
2023-05-05T11:42:36.193Z,98250.22
2023-05-05T11:43:37.872Z,98257.69
2023-05-05T11:44:39.913Z,98255.25
2023-05-05T11:45:41.410Z,98244.19
2023-05-05T11:46:51.725Z,98257.72
2023-05-05T11:47:53.252Z,98245.00
2023-05-05T11:48:54.867Z,98247.97
2023-05-05T11:49:56.845Z,98244.91
2023-05-05T11:50:58.387Z,98252.72
2023-05-05T11:52:01.242Z,98247.38
2023-05-05T11:53:02.622Z,98250.53
2023-05-05T11:54:04.147Z,98242.31
2023-05-05T11:55:06.817Z,98246.22
2023-05-05T11:56:09.581Z,98247.56
2023-05-05T11:57:11.199Z,98242.03
2023-05-05T11:58:19.297Z,98239.91
2023-05-05T11:59:20.836Z,98227.41
2023-05-05T12:00:31.674Z,98234.22
2023-05-05T12:01:33.193Z,98235.19
2023-05-05T12:02:34.889Z,98234.22
2023-05-05T12:03:39.612Z,98231.47
2023-05-05T12:04:41.399Z,98231.28
2023-05-05T12:05:43.455Z,98226.75
2023-05-05T12:06:45.569Z,98230.16
2023-05-05T12:07:47.119Z,98231.13
2023-05-05T12:08:48.665Z,98209.84
2023-05-05T12:09:50.329Z,98230.78
2023-05-05T12:10:52.382Z,98238.44
2023-05-05T12:11:58.013Z,98240.72
2023-05-05T12:12:59.563Z,98242.50
2023-05-05T12:14:10.861Z,98237.63
2023-05-05T12:15:12.571Z,98244.59
2023-05-05T12:16:15.843Z,98243.31
2023-05-05T12:17:19.128Z,98232.44
2023-05-05T12:18:20.823Z,98241.19
2023-05-05T12:19:22.458Z,98239.56
2023-05-05T12:20:32.303Z,98244.44
2023-05-05T12:21:34.748Z,98247.88
2023-05-05T12:22:36.853Z,98237.63
2023-05-05T12:23:39.078Z,98242.66
2023-05-05T12:24:40.680Z,98248.50
2023-05-05T12:25:42.257Z,98242.34
2023-05-05T12:26:43.805Z,98245.59
2023-05-05T12:27:52.507Z,98248.03
2023-05-05T12:28:54.344Z,98247.22
2023-05-05T12:29:56.749Z,98239.06
2023-05-05T12:30:58.875Z,98234.59
2023-05-05T12:32:00.749Z,98246.84
2023-05-05T12:33:06.838Z,98244.72